Time,TemperatureF,DewpointF,PressureIn,WindDirection,WindDirectionDegrees,WindSpeedMPH,WindSpeedGustMPH,Humidity,HourlyPrecipIn,Conditions,Clouds,dailyrainin,SolarRadiationWatts/m^2,SoftwareType,DateUTC
2013-03-25 00:00:00,47.7,32.8,30.09,NNW,338,2.0,6.0,56,0.00,,,0.00,0.00,VWS V14.00,2013-03-25 05:00:00,
2013-03-25 00:15:00,47.7,33.2,30.09,North,0,3.0,7.0,57,0.00,,,0.00,0.00,VWS V14.00,2013-03-25 05:15:00,
2013-03-25 00:30:00,47.7,32.8,30.09,North,0,4.0,9.0,56,0.00,,,0.00,0.00,VWS V14.00,2013-03-25 05:30:00,
2013-03-25 00:45:00,47.5,32.6,30.10,North,0,4.0,11.0,56,0.00,,,0.00,0.00,VWS V14.00,2013-03-25 05:45:00,
2013-03-25 01:00:00,48.0,32.6,30.10,North,0,4.0,9.0,55,0.00,,,0.00,0.00,VWS V14.00,2013-03-25 06:00:00,
2013-03-25 01:15:00,47.5,33.0,30.10,North,0,4.0,13.0,57,0.00,,,0.00,0.00,VWS V14.00,2013-03-25 06:15:00,
2013-03-25 01:30:00,47.2,32.8,30.10,North,0,5.0,10.0,57,0.00,,,0.00,0.00,VWS V14.00,2013-03-25 06:30:00,
2013-03-25 01:45:00,47.1,32.7,30.11,North,0,5.0,12.0,57,0.00,,,0.00,0.00,VWS V14.00,2013-03-25 06:45:00,
2013-03-25 02:00:00,46.9,32.9,30.11,North,0,5.0,12.0,58,0.00,,,0.00,0.00,VWS V14.00,2013-03-25 07:00:00,
2013-03-25 02:15:00,47.3,32.8,30.09,North,0,6.0,13.0,57,0.00,,,0.00,0.00,VWS V14.00,2013-03-25 07:15:00,
2013-03-25 02:30:00,47.8,33.8,30.10,North,0,6.0,15.0,58,0.00,,,0.00,0.00,VWS V14.00,2013-03-25 07:30:00,
2013-03-25 02:45:00,47.8,33.3,30.11,North,0,7.0,17.0,57,0.00,,,0.00,0.00,VWS V14.00,2013-03-25 07:45:00,
2013-03-25 03:15:00,46.5,33.0,30.11,North,0,5.0,10.0,59,0.00,,,0.00,0.00,VWS V14.00,2013-03-25 08:15:00,
2013-03-25 03:30:00,46.1,33.0,30.10,North,0,6.0,13.0,60,0.00,,,0.00,0.00,VWS V14.00,2013-03-25 08:30:00,
2013-03-25 03:45:00,46.1,33.0,30.10,North,0,6.0,15.0,60,0.00,,,0.00,0.00,VWS V14.00,2013-03-25 08:45:00,
2013-03-25 04:00:00,46.4,33.3,30.10,North,0,7.0,16.0,60,0.00,,,0.00,0.00,VWS V14.00,2013-03-25 09:00:00,
2013-03-25 04:15:00,45.9,32.8,30.10,North,0,7.0,16.0,60,0.00,,,0.00,0.00,VWS V14.00,2013-03-25 09:15:00,
2013-03-25 04:30:00,46.4,33.3,30.10,North,0,8.0,18.0,60,0.00,,,0.00,0.00,VWS V14.00,2013-03-25 09:30:00,
2013-03-25 04:45:00,46.1,33.4,30.11,North,0,8.0,17.0,61,0.00,,,0.00,0.00,VWS V14.00,2013-03-25 09:45:00,
2013-03-25 05:00:00,45.9,33.2,30.12,North,0,7.0,17.0,61,0.00,,,0.00,0.00,VWS V14.00,2013-03-25 10:00:00,
2013-03-25 05:15:00,45.0,32.8,30.14,North,0,5.0,13.0,62,0.00,,,0.00,0.00,VWS V14.00,2013-03-25 10:15:00,
2013-03-25 05:30:00,43.5,32.5,30.15,North,0,2.0,7.0,65,0.00,,,0.00,0.00,VWS V14.00,2013-03-25 10:30:00,
2013-03-25 05:45:00,42.4,32.2,30.16,NW,315,1.0,5.0,67,0.00,,,0.00,0.00,VWS V14.00,2013-03-25 10:45:00,
2013-03-25 06:00:00,41.7,32.3,30.16,NNW,338,1.0,4.0,69,0.00,,,0.00,0.00,VWS V14.00,2013-03-25 11:00:00,
2013-03-25 06:15:00,41.4,32.4,30.17,North,0,2.0,6.0,70,0.00,,,0.00,0.00,VWS V14.00,2013-03-25 11:15:00,
2013-03-25 06:30:00,41.4,32.4,30.19,North,0,2.0,5.0,70,0.00,,,0.00,0.00,VWS V14.00,2013-03-25 11:30:00,
2013-03-25 06:45:00,41.2,32.2,30.19,North,0,2.0,4.0,70,0.00,,,0.00,0.00,VWS V14.00,2013-03-25 11:45:00,
2013-03-25 07:30:00,40.8,32.1,30.20,North,0,3.0,9.0,71,0.00,,,0.00,3.00,VWS V14.00,2013-03-25 12:30:00,
2013-03-25 07:45:00,41.1,32.4,30.21,North,0,4.0,9.0,71,0.00,,,0.00,18.00,VWS V14.00,2013-03-25 12:45:00,
2013-03-25 08:00:00,42.2,32.4,30.22,North,0,5.0,12.0,68,0.00,,,0.00,34.00,VWS V14.00,2013-03-25 13:00:00,
2013-03-25 08:15:00,43.0,32.4,30.23,North,0,6.0,14.0,66,0.00,,,0.00,88.00,VWS V14.00,2013-03-25 13:15:00,
2013-03-25 08:30:00,43.8,32.8,30.23,North,0,7.0,14.0,65,0.00,,,0.00,181.00,VWS V14.00,2013-03-25 13:30:00,
2013-03-25 09:00:00,46.8,32.4,30.25,NNE,13,14.0,15.0,57,0.00,,,0.00,341.00,VWS V14.00,2013-03-25 14:00:00,
2013-03-25 09:15:00,48.1,31.3,30.25,North,0,8.0,18.0,52,0.00,,,0.00,373.00,VWS V14.00,2013-03-25 14:15:00,
2013-03-25 09:30:00,48.9,31.1,30.26,North,0,10.0,21.0,50,0.00,,,0.00,429.00,VWS V14.00,2013-03-25 14:30:00,
2013-03-25 09:45:00,49.2,30.4,30.27,NNE,22,12.0,22.0,48,0.00,,,0.00,486.00,VWS V14.00,2013-03-25 14:45:00,
2013-03-25 10:00:00,50.4,29.3,30.28,North,355,11.0,18.0,44,0.00,,,0.00,564.00,VWS V14.00,2013-03-25 15:00:00,
2013-03-25 10:15:00,51.0,29.3,30.28,North,0,9.0,18.0,43,0.00,,,0.00,594.00,VWS V14.00,2013-03-25 15:15:00,
2013-03-25 10:30:00,51.7,28.8,30.29,North,0,9.0,16.0,41,0.00,,,0.00,642.00,VWS V14.00,2013-03-25 15:30:00,
2013-03-25 10:45:00,53.3,29.0,30.29,North,0,7.0,16.0,39,0.00,,,0.00,688.00,VWS V14.00,2013-03-25 15:45:00,
2013-03-25 11:00:00,53.9,28.2,30.30,North,0,7.0,13.0,37,0.00,,,0.00,733.00,VWS V14.00,2013-03-25 16:00:00,
2013-03-25 11:15:00,54.5,28.1,30.30,NNE,22,8.0,17.0,36,0.00,,,0.00,772.00,VWS V14.00,2013-03-25 16:15:00,
2013-03-25 11:30:00,55.1,25.0,30.30,North,0,9.0,17.0,31,0.00,,,0.00,808.00,VWS V14.00,2013-03-25 16:30:00,
2013-03-25 11:45:00,57.0,25.9,30.30,North,0,6.0,14.0,30,0.00,,,0.00,840.00,VWS V14.00,2013-03-25 16:45:00,
2013-03-25 12:00:00,57.1,22.6,30.30,North,0,8.0,16.0,26,0.00,,,0.00,870.00,VWS V14.00,2013-03-25 17:00:00,
2013-03-25 12:15:00,58.1,23.4,30.29,North,0,7.0,19.0,26,0.00,,,0.00,895.00,VWS V14.00,2013-03-25 17:15:00,
2013-03-25 12:30:00,58.9,21.2,30.28,North,0,7.0,16.0,23,0.00,,,0.00,916.00,VWS V14.00,2013-03-25 17:30:00,
2013-03-25 12:45:00,59.8,26.6,30.27,NNE,22,6.0,14.0,28,0.00,,,0.00,930.00,VWS V14.00,2013-03-25 17:45:00,
2013-03-25 13:00:00,60.2,21.2,30.27,NNE,22,6.0,18.0,22,0.00,,,0.00,940.00,VWS V14.00,2013-03-25 18:00:00,
2013-03-25 13:15:00,60.5,24.5,30.26,North,0,6.0,16.0,25,0.00,,,0.00,945.00,VWS V14.00,2013-03-25 18:15:00,
2013-03-25 13:30:00,62.1,22.8,30.25,North,0,5.0,12.0,22,0.00,,,0.00,946.00,VWS V14.00,2013-03-25 18:30:00,
2013-03-25 13:45:00,61.4,23.3,30.25,NNE,22,5.0,14.0,23,0.00,,,0.00,945.00,VWS V14.00,2013-03-25 18:45:00,
2013-03-25 14:00:00,61.7,20.2,30.24,North,0,4.0,12.0,20,0.00,,,0.00,937.00,VWS V14.00,2013-03-25 19:00:00,
2013-03-25 14:15:00,62.5,20.9,30.23,NNW,338,5.0,11.0,20,0.00,,,0.00,927.00,VWS V14.00,2013-03-25 19:15:00,
2013-03-25 14:30:00,62.6,22.1,30.23,North,0,4.0,11.0,21,0.00,,,0.00,908.00,VWS V14.00,2013-03-25 19:30:00,
2013-03-25 14:45:00,63.1,23.7,30.23,North,0,4.0,12.0,22,0.00,,,0.00,890.00,VWS V14.00,2013-03-25 19:45:00,
2013-03-25 15:00:00,63.8,22.0,30.22,NNE,29,3.0,10.0,20,0.00,,,0.00,849.00,VWS V14.00,2013-03-25 20:00:00,
2013-03-25 15:15:00,63.1,22.6,30.21,North,11,5.0,12.0,21,0.00,,,0.00,819.00,VWS V14.00,2013-03-25 20:15:00,
2013-03-25 15:30:00,62.9,21.2,30.21,North,0,5.0,16.0,20,0.00,,,0.00,804.00,VWS V14.00,2013-03-25 20:30:00,
2013-03-25 15:45:00,64.1,23.4,30.20,North,0,4.0,12.0,21,0.00,,,0.00,770.00,VWS V14.00,2013-03-25 20:45:00,
2013-03-25 16:00:00,63.8,22.0,30.20,North,0,4.0,11.0,20,0.00,,,0.00,731.00,VWS V14.00,2013-03-25 21:00:00,
2013-03-25 16:15:00,64.4,23.6,30.19,North,0,4.0,11.0,21,0.00,,,0.00,686.00,VWS V14.00,2013-03-25 21:15:00,
2013-03-25 16:30:00,63.8,22.0,30.18,North,0,4.0,9.0,20,0.00,,,0.00,640.00,VWS V14.00,2013-03-25 21:30:00,
2013-03-25 16:45:00,64.3,24.7,30.18,North,0,4.0,11.0,22,0.00,,,0.00,590.00,VWS V14.00,2013-03-25 21:45:00,
2013-03-25 17:00:00,64.1,22.2,30.18,North,0,3.0,10.0,20,0.00,,,0.00,538.00,VWS V14.00,2013-03-25 22:00:00,
2013-03-25 17:15:00,64.3,24.7,30.18,NNE,22,2.0,8.0,22,0.00,,,0.00,484.00,VWS V14.00,2013-03-25 22:15:00,
2013-03-25 17:30:00,64.0,23.3,30.18,North,0,3.0,9.0,21,0.00,,,0.00,431.00,VWS V14.00,2013-03-25 22:30:00,
2013-03-25 17:45:00,64.0,22.1,30.18,North,0,2.0,9.0,20,0.00,,,0.00,374.00,VWS V14.00,2013-03-25 22:45:00,
2013-03-25 18:00:00,63.4,20.5,30.19,NW,315,3.0,8.0,19,0.00,,,0.00,320.00,VWS V14.00,2013-03-25 23:00:00,
2013-03-25 18:15:00,62.5,20.9,30.19,North,0,4.0,10.0,20,0.00,,,0.00,266.00,VWS V14.00,2013-03-25 23:15:00,
2013-03-25 18:30:00,62.6,23.2,30.19,North,0,2.0,8.0,22,0.00,,,0.00,209.00,VWS V14.00,2013-03-25 23:30:00,
2013-03-25 18:45:00,61.7,22.5,30.19,North,0,2.0,7.0,22,0.00,,,0.00,112.00,VWS V14.00,2013-03-25 23:45:00,
2013-03-25 19:00:00,60.3,21.3,30.19,North,0,3.0,10.0,22,0.00,,,0.00,48.00,VWS V14.00,2013-03-26 00:00:00,
2013-03-25 19:15:00,59.7,22.9,30.20,North,0,2.0,5.0,24,0.00,,,0.00,55.00,VWS V14.00,2013-03-26 00:15:00,
2013-03-25 19:30:00,58.9,23.2,30.20,NNW,338,2.0,6.0,25,0.00,,,0.00,27.00,VWS V14.00,2013-03-26 00:30:00,
2013-03-25 19:45:00,58.0,22.4,30.21,North,0,3.0,9.0,25,0.00,,,0.00,8.00,VWS V14.00,2013-03-26 00:45:00,
2013-03-25 20:03:00,57.6,22.1,30.21,North,0,3.0,7.0,25,0.00,,,0.00,0.00,VWS V14.00,2013-03-26 01:03:00,
2013-03-25 20:15:00,57.5,24.7,30.22,NNW,346,4.0,12.0,28,0.00,,,0.00,0.00,VWS V14.00,2013-03-26 01:15:00,
2013-03-25 20:30:00,57.4,22.8,30.23,North,0,5.0,12.0,26,0.00,,,0.00,0.00,VWS V14.00,2013-03-26 01:30:00,
2013-03-25 20:45:00,57.1,24.3,30.23,North,0,4.0,11.0,28,0.00,,,0.00,0.00,VWS V14.00,2013-03-26 01:45:00,
2013-03-25 21:00:00,56.7,25.6,30.24,North,0,5.0,10.0,30,0.00,,,0.00,0.00,VWS V14.00,2013-03-26 02:00:00,
2013-03-25 21:15:00,56.3,26.8,30.25,North,0,5.0,11.0,32,0.00,,,0.00,0.00,VWS V14.00,2013-03-26 02:15:00,
2013-03-25 21:30:00,56.2,25.2,30.25,North,0,6.0,12.0,30,0.00,,,0.00,0.00,VWS V14.00,2013-03-26 02:30:00,
2013-03-25 21:45:00,55.8,24.9,30.26,North,0,5.0,11.0,30,0.00,,,0.00,0.00,VWS V14.00,2013-03-26 02:45:00,
2013-03-25 22:00:00,55.6,24.7,30.27,North,0,5.0,12.0,30,0.00,,,0.00,0.00,VWS V14.00,2013-03-26 03:00:00,
2013-03-25 22:15:00,55.4,25.3,30.28,North,0,5.0,11.0,31,0.00,,,0.00,0.00,VWS V14.00,2013-03-26 03:15:00,
2013-03-25 22:45:00,55.4,26.0,30.30,North,0,5.0,11.0,32,0.00,,,0.00,0.00,VWS V14.00,2013-03-26 03:45:00,
2013-03-25 23:00:00,55.0,28.6,30.31,North,0,5.0,10.0,36,0.00,,,0.00,0.00,VWS V14.00,2013-03-26 04:00:00,
2013-03-25 23:15:00,54.6,29.5,30.31,North,0,4.0,10.0,38,0.00,,,0.00,0.00,VWS V14.00,2013-03-26 04:15:00,
2013-03-25 23:30:00,54.0,29.0,30.31,North,0,4.0,7.0,38,0.00,,,0.00,0.00,VWS V14.00,2013-03-26 04:30:00,
2013-03-25 23:45:00,53.0,26.8,30.31,North,0,4.0,9.0,36,0.00,,,0.00,0.00,VWS V14.00,2013-03-26 04:45:00,